Blue Jay, California
Current Conditions -  °F | °C
As of 9:46 AM on Friday 31 Oct 2014 (Local Time) from KSBD Reporting Station
Haze Haze  
Wind Chill: 59°   Ceiling: 2600
Heat Index: 59°   Visibility: 4mi
Dew Point: 54°   Wind: 0mph
Humidity: 82%   Direction: NA
Pressure: 30"   Gusts: NA
Location:  34.25°N, 117.21°W
Report Text: KSBD 311646Z 00000KT 4SM BR SCT018 OVC026 15/12 A3000
Loading
Personal Weather Stations






























Interactive Weather Map New forecast layout! Learn more

10-Day Weather Forecast

Advertisements
Track Severe Weather on mobile